Time;durP1;ratioP1;P1;durP2;ratioP2;P2;SDS_P1;SDS_P2;PMS_P1;PMS_P2;Temp;Humidity;BMP_temperature;BMP_pressure;BME280_temperature;BME280_humidity;BME280_pressure;Samples;Min_cycle;Max_cycle;Signal;HPM_P1;HPM_P2
2021/12/23 00:01:23;;;;;;;8.02;6.00;;;;;;;;;;5009271;28;20045;-61
2021/12/23 00:03:48;;;;;;;6.80;6.20;;;;;;;;;;5007595;28;20111;-59
2021/12/23 00:06:14;;;;;;;4.90;4.50;;;;;;;;;;5008222;28;20209;-59
2021/12/23 00:08:39;;;;;;;6.68;5.57;;;;;;;;;;5009435;28;20030;-59
2021/12/23 00:11:05;;;;;;;8.20;5.45;;;;;;;;;;5011246;28;20356;-58
2021/12/23 00:13:33;;;;;;;14.85;5.07;;;;;;;;;;5005896;28;20038;-59
2021/12/23 00:23:48;;;;;;;6.43;5.80;;;;;;;;;;5006046;28;20029;-59
2021/12/23 00:26:14;;;;;;;5.40;4.90;;;;;;;;;;5002848;28;20037;-59
2021/12/23 00:28:39;;;;;;;13.15;4.82;;;;;;;;;;5006636;28;20034;-59
2021/12/23 00:31:06;;;;;;;6.35;5.10;;;;;;;;;;5001081;28;20087;-59
2021/12/23 00:33:34;;;;;;;6.88;6.18;;;;;;;;;;5012430;28;20033;-58
2021/12/23 00:35:59;;;;;;;5.55;4.07;;;;;;;;;;5008993;28;20066;-59
2021/12/23 00:38:28;;;;;;;4.60;3.58;;;;;;;;;;5009848;28;20081;-59
2021/12/23 00:40:55;;;;;;;5.53;4.95;;;;;;;;;;5010846;28;20514;-58
2021/12/23 00:43:21;;;;;;;7.63;6.15;;;;;;;;;;5007817;28;20048;-59
2021/12/23 00:45:48;;;;;;;7.47;5.00;;;;;;;;;;5010934;28;20033;-59
2021/12/23 00:48:14;;;;;;;9.25;6.40;;;;;;;;;;5007272;28;20021;-58
2021/12/23 00:50:39;;;;;;;12.30;6.00;;;;;;;;;;5009213;28;20121;-59
2021/12/23 00:53:07;;;;;;;145.77;81.35;;;;;;;;;;5010389;28;20127;-59
2021/12/23 00:55:33;;;;;;;21.35;13.60;;;;;;;;;;5009695;28;20037;-59
2021/12/23 00:58:00;;;;;;;5.50;5.00;;;;;;;;;;5010733;28;20038;-59
2021/12/23 01:00:26;;;;;;;10.52;6.22;;;;;;;;;;5004403;28;20018;-59
2021/12/23 01:02:52;;;;;;;8.27;6.03;;;;;;;;;;5003072;28;20113;-59
2021/12/23 01:05:21;;;;;;;5.57;4.68;;;;;;;;;;5000491;28;20092;-59
2021/12/23 01:07:47;;;;;;;5.45;4.95;;;;;;;;;;5005425;28;20125;-59
2021/12/23 01:10:13;;;;;;;10.05;4.97;;;;;;;;;;5010302;28;20379;-59
2021/12/23 01:12:47;;;;;;;5.78;5.15;;;;;;;;;;5007097;28;20049;-59
2021/12/23 01:15:49;;;;;;;5.00;4.53;;;;;;;;;;5002971;28;20050;-59
2021/12/23 01:18:18;;;;;;;6.05;5.40;;;;;;;;;;5011382;28;20030;-59
2021/12/23 01:20:52;;;;;;;5.57;4.68;;;;;;;;;;5008541;28;20041;-59
2021/12/23 01:23:23;;;;;;;5.90;4.80;;;;;;;;;;5007238;28;20041;-59
2021/12/23 01:25:50;;;;;;;5.57;4.47;;;;;;;;;;5005852;28;20535;-59
2021/12/23 01:28:17;;;;;;;6.28;5.68;;;;;;;;;;5010298;28;20037;-59
2021/12/23 01:30:42;;;;;;;10.07;6.63;;;;;;;;;;5009321;28;20042;-59
2021/12/23 01:33:09;;;;;;;5.65;5.03;;;;;;;;;;5004132;28;20490;-59
2021/12/23 01:35:36;;;;;;;7.18;5.68;;;;;;;;;;5006536;28;20407;-59
2021/12/23 01:38:01;;;;;;;5.50;4.88;;;;;;;;;;5008130;28;20393;-59
2021/12/23 01:40:28;;;;;;;7.88;4.80;;;;;;;;;;4998234;28;20050;-59
2021/12/23 01:42:54;;;;;;;8.30;6.07;;;;;;;;;;5002577;28;20064;-59
2021/12/23 01:45:25;;;;;;;5.30;4.50;;;;;;;;;;5007245;28;20045;-59
2021/12/23 01:47:51;;;;;;;5.82;5.18;;;;;;;;;;5009140;28;20044;-59
2021/12/23 01:50:24;;;;;;;5.35;4.85;;;;;;;;;;5009370;28;20109;-59
2021/12/23 01:52:49;;;;;;;6.90;4.38;;;;;;;;;;5008918;28;20041;-59
2021/12/23 01:55:15;;;;;;;4.68;4.22;;;;;;;;;;5010552;28;20045;-59
2021/12/23 01:57:42;;;;;;;9.25;5.28;;;;;;;;;;5006893;28;20116;-59
2021/12/23 02:00:12;;;;;;;8.05;6.50;;;;;;;;;;5007448;28;20078;-59
2021/12/23 02:02:37;;;;;;;7.15;4.97;;;;;;;;;;5008668;28;20049;-59
2021/12/23 02:05:04;;;;;;;10.07;5.90;;;;;;;;;;5004317;28;20068;-60
2021/12/23 02:07:29;;;;;;;5.95;5.35;;;;;;;;;;5008839;28;20456;-60
2021/12/23 02:09:55;;;;;;;6.50;5.50;;;;;;;;;;5005493;28;20026;-61
2021/12/23 02:12:21;;;;;;;15.38;4.35;;;;;;;;;;5001894;28;20026;-60
2021/12/23 02:14:46;;;;;;;5.28;4.38;;;;;;;;;;5002733;28;20617;-60
2021/12/23 02:17:12;;;;;;;6.20;4.97;;;;;;;;;;4998814;28;20030;-60
2021/12/23 02:19:37;;;;;;;5.45;4.95;;;;;;;;;;5002141;28;20069;-60
2021/12/23 02:22:03;;;;;;;6.38;5.47;;;;;;;;;;5003746;28;20030;-60
2021/12/23 02:24:28;;;;;;;6.97;5.35;;;;;;;;;;5009273;28;20324;-60
2021/12/23 02:26:54;;;;;;;5.38;4.38;;;;;;;;;;5002150;28;20022;-60
2021/12/23 02:29:19;;;;;;;7.18;5.18;;;;;;;;;;5007534;28;20099;-60
2021/12/23 02:31:49;;;;;;;5.07;4.57;;;;;;;;;;5009161;28;20119;-60
2021/12/23 02:34:17;;;;;;;5.15;4.65;;;;;;;;;;4982174;28;20392;-60
2021/12/23 02:36:57;;;;;;;7.00;5.50;;;;;;;;;;5005532;28;20038;-60
2021/12/23 02:39:24;;;;;;;5.40;4.90;;;;;;;;;;5010729;28;20034;-60
2021/12/23 02:41:51;;;;;;;4.68;4.00;;;;;;;;;;5005920;28;20098;-60
2021/12/23 02:44:18;;;;;;;10.95;6.45;;;;;;;;;;5009029;28;20034;-60
2021/12/23 02:46:44;;;;;;;4.93;4.40;;;;;;;;;;5007504;28;20026;-60
2021/12/23 02:49:10;;;;;;;10.02;5.30;;;;;;;;;;5003525;28;20037;-60
2021/12/23 02:51:36;;;;;;;4.53;4.10;;;;;;;;;;5003837;28;20037;-59
2021/12/23 02:54:02;;;;;;;6.03;5.40;;;;;;;;;;4999526;28;20038;-60
2021/12/23 02:56:28;;;;;;;6.75;6.05;;;;;;;;;;5000222;28;20037;-60
2021/12/23 02:58:53;;;;;;;6.38;5.78;;;;;;;;;;5001748;28;20037;-60
2021/12/23 03:01:21;;;;;;;6.63;6.03;;;;;;;;;;5006831;28;20034;-60
2021/12/23 03:03:46;;;;;;;11.63;6.93;;;;;;;;;;5010105;28;20064;-60
2021/12/23 03:06:12;;;;;;;7.72;5.43;;;;;;;;;;5003903;28;20363;-60
2021/12/23 03:08:41;;;;;;;7.18;6.07;;;;;;;;;;5007597;28;20034;-60
2021/12/23 03:11:09;;;;;;;6.00;5.40;;;;;;;;;;5004194;28;20355;-60
2021/12/23 03:13:35;;;;;;;9.38;6.30;;;;;;;;;;5003328;28;20034;-60
2021/12/23 03:16:01;;;;;;;5.57;4.97;;;;;;;;;;5008566;28;20034;-60
2021/12/23 03:18:27;;;;;;;7.82;5.55;;;;;;;;;;5004954;28;20045;-59
2021/12/23 03:20:53;;;;;;;8.27;5.13;;;;;;;;;;5007087;28;20030;-60
2021/12/23 03:23:18;;;;;;;6.53;5.88;;;;;;;;;;5002074;28;20026;-60
2021/12/23 03:25:44;;;;;;;6.78;5.82;;;;;;;;;;5005894;28;20425;-59
2021/12/23 03:28:09;;;;;;;10.80;5.80;;;;;;;;;;5003216;28;20034;-59
2021/12/23 03:30:35;;;;;;;9.10;6.78;;;;;;;;;;4999471;28;20026;-59
2021/12/23 03:33:00;;;;;;;6.53;4.10;;;;;;;;;;5001495;28;20427;-59
2021/12/23 03:35:26;;;;;;;6.20;5.38;;;;;;;;;;5004740;28;20026;-59
2021/12/23 03:37:53;;;;;;;6.72;5.68;;;;;;;;;;5009499;28;20057;-59
2021/12/23 03:40:19;;;;;;;6.78;5.78;;;;;;;;;;5007552;28;20447;-60
2021/12/23 03:42:44;;;;;;;6.57;5.85;;;;;;;;;;5012587;28;20037;-61
2021/12/23 03:45:10;;;;;;;4.75;4.28;;;;;;;;;;5010246;28;20025;-60
2021/12/23 03:47:36;;;;;;;6.00;4.35;;;;;;;;;;5012371;28;20068;-60
2021/12/23 03:50:03;;;;;;;5.63;5.03;;;;;;;;;;5006950;28;20030;-60
2021/12/23 03:52:28;;;;;;;5.75;5.20;;;;;;;;;;5010058;28;20026;-60
2021/12/23 03:54:53;;;;;;;6.65;3.78;;;;;;;;;;5011897;28;20710;-60
2021/12/23 03:57:19;;;;;;;7.60;6.38;;;;;;;;;;5011676;28;20026;-60
2021/12/23 03:59:44;;;;;;;8.07;5.93;;;;;;;;;;5002948;28;20073;-60
2021/12/23 04:02:10;;;;;;;7.40;6.28;;;;;;;;;;5006956;28;20095;-59
2021/12/23 04:04:36;;;;;;;4.55;3.95;;;;;;;;;;5005016;28;20057;-60
2021/12/23 04:07:02;;;;;;;9.20;5.38;;;;;;;;;;5002070;28;20035;-60
2021/12/23 04:09:27;;;;;;;5.05;4.50;;;;;;;;;;5008222;28;20104;-58
2021/12/23 04:11:53;;;;;;;8.23;5.45;;;;;;;;;;5008331;28;20022;-59
2021/12/23 04:14:18;;;;;;;5.40;4.63;;;;;;;;;;5006972;28;20034;-60
2021/12/23 04:16:44;;;;;;;4.95;4.45;;;;;;;;;;5008905;28;20043;-60
2021/12/23 04:19:11;;;;;;;5.88;4.97;;;;;;;;;;5011132;28;20099;-60
2021/12/23 04:21:38;;;;;;;7.93;5.70;;;;;;;;;;5009223;28;20030;-60
2021/12/23 04:24:04;;;;;;;9.57;6.03;;;;;;;;;;5011698;28;20034;-60
2021/12/23 04:26:30;;;;;;;7.93;5.15;;;;;;;;;;5008527;28;20452;-60
2021/12/23 04:28:55;;;;;;;6.93;5.63;;;;;;;;;;5004810;28;20042;-60
2021/12/23 04:31:23;;;;;;;8.02;5.20;;;;;;;;;;5007789;28;20157;-61
2021/12/23 04:33:50;;;;;;;5.68;4.15;;;;;;;;;;5009758;28;20034;-59
2021/12/23 04:36:17;;;;;;;7.75;5.30;;;;;;;;;;5007742;28;20100;-60
2021/12/23 04:38:44;;;;;;;7.60;5.20;;;;;;;;;;5011161;28;20036;-59
2021/12/23 04:41:10;;;;;;;5.95;5.43;;;;;;;;;;5009204;28;20021;-59
2021/12/23 04:43:36;;;;;;;4.82;4.28;;;;;;;;;;5004514;28;20364;-59
2021/12/23 04:46:02;;;;;;;10.05;4.68;;;;;;;;;;5002866;28;20021;-59
2021/12/23 04:48:29;;;;;;;6.82;5.45;;;;;;;;;;5006022;28;20456;-58
2021/12/23 04:50:55;;;;;;;5.60;4.80;;;;;;;;;;5006928;28;20095;-60
2021/12/23 04:53:20;;;;;;;6.75;4.53;;;;;;;;;;5005572;28;20108;-59
2021/12/23 04:55:46;;;;;;;6.75;5.68;;;;;;;;;;5008499;28;20053;-59
2021/12/23 04:58:11;;;;;;;6.78;5.32;;;;;;;;;;5008979;28;20045;-60
2021/12/23 05:00:36;;;;;;;9.38;5.22;;;;;;;;;;5011873;28;20025;-60
2021/12/23 05:03:02;;;;;;;6.13;5.53;;;;;;;;;;5008610;28;20037;-60
2021/12/23 05:05:27;;;;;;;6.22;4.70;;;;;;;;;;5009568;28;20022;-60
2021/12/23 05:07:53;;;;;;;6.10;5.53;;;;;;;;;;5013423;28;20933;-60
2021/12/23 05:10:19;;;;;;;7.25;5.60;;;;;;;;;;5006330;28;20080;-60
2021/12/23 05:12:46;;;;;;;10.98;6.45;;;;;;;;;;5008373;28;20038;-60
2021/12/23 05:15:17;;;;;;;6.30;4.82;;;;;;;;;;5005305;28;20744;-60
2021/12/23 05:17:43;;;;;;;;;;;;;;;;;;5009657;28;20038;-62
2021/12/23 05:20:10;;;;;;;5.63;4.90;;;;;;;;;;5004406;28;19921;-60
2021/12/23 05:22:36;;;;;;;5.40;4.80;;;;;;;;;;5000146;28;20030;-60
2021/12/23 05:25:01;;;;;;;7.80;4.65;;;;;;;;;;5002308;28;20995;-59
2021/12/23 05:27:26;;;;;;;6.57;5.97;;;;;;;;;;5005888;28;20025;-59
2021/12/23 05:29:52;;;;;;;5.63;5.07;;;;;;;;;;5008849;28;20033;-59
2021/12/23 05:32:17;;;;;;;8.43;6.18;;;;;;;;;;5010034;28;20354;-58
2021/12/23 05:34:43;;;;;;;7.35;5.30;;;;;;;;;;5006355;28;20472;-59
2021/12/23 05:37:08;;;;;;;8.18;4.63;;;;;;;;;;4997644;28;20034;-59
2021/12/23 05:39:34;;;;;;;5.78;5.28;;;;;;;;;;5008932;28;20483;-59
2021/12/23 05:41:59;;;;;;;5.03;4.10;;;;;;;;;;5011356;28;20018;-58
2021/12/23 05:44:24;;;;;;;7.55;6.25;;;;;;;;;;5005774;28;20034;-59
2021/12/23 05:46:50;;;;;;;5.53;4.97;;;;;;;;;;5005909;28;20041;-59
2021/12/23 05:49:15;;;;;;;7.55;5.38;;;;;;;;;;5007140;28;20034;-59
2021/12/23 05:51:41;;;;;;;7.53;5.57;;;;;;;;;;5007925;28;20526;-59
2021/12/23 05:54:06;;;;;;;7.13;6.38;;;;;;;;;;5006005;28;20026;-58
2021/12/23 05:56:32;;;;;;;12.65;6.55;;;;;;;;;;5005085;28;20089;-59
2021/12/23 05:58:57;;;;;;;10.20;6.72;;;;;;;;;;5001489;28;20476;-59
2021/12/23 06:01:23;;;;;;;5.90;5.30;;;;;;;;;;5004854;28;20030;-59
2021/12/23 06:03:48;;;;;;;7.00;6.10;;;;;;;;;;5004786;28;20468;-59
2021/12/23 06:06:15;;;;;;;6.72;5.50;;;;;;;;;;5009354;28;20034;-58
2021/12/23 06:08:41;;;;;;;7.85;5.43;;;;;;;;;;5008574;28;20456;-59
2021/12/23 06:11:07;;;;;;;7.53;4.65;;;;;;;;;;5011664;28;20396;-59
2021/12/23 06:13:33;;;;;;;6.25;5.25;;;;;;;;;;5009313;28;20041;-59
2021/12/23 06:15:58;;;;;;;5.22;4.70;;;;;;;;;;5005129;28;20056;-60
2021/12/23 06:18:24;;;;;;;5.90;5.30;;;;;;;;;;5008348;28;20030;-59
2021/12/23 06:20:49;;;;;;;6.45;5.60;;;;;;;;;;5005937;28;20379;-59
2021/12/23 06:23:15;;;;;;;7.00;6.00;;;;;;;;;;5004601;28;20511;-60
2021/12/23 06:25:41;;;;;;;5.55;5.05;;;;;;;;;;5007835;28;20397;-60
2021/12/23 06:28:06;;;;;;;7.80;5.43;;;;;;;;;;5006913;28;20448;-59
2021/12/23 06:30:31;;;;;;;8.48;6.05;;;;;;;;;;5006431;28;20034;-60
2021/12/23 06:32:57;;;;;;;6.65;4.32;;;;;;;;;;5006015;28;20088;-60
2021/12/23 06:35:25;;;;;;;6.82;4.95;;;;;;;;;;5000511;28;20042;-60
2021/12/23 06:37:51;;;;;;;5.22;4.72;;;;;;;;;;5004273;28;20026;-60
2021/12/23 06:40:17;;;;;;;8.90;5.15;;;;;;;;;;5003790;28;20026;-60
2021/12/23 06:42:43;;;;;;;7.57;5.20;;;;;;;;;;5007547;28;20049;-60
2021/12/23 06:45:09;;;;;;;9.15;6.95;;;;;;;;;;5014213;28;20367;-59
2021/12/23 06:47:36;;;;;;;5.32;4.68;;;;;;;;;;5006227;28;20041;-60
2021/12/23 06:50:03;;;;;;;7.57;6.30;;;;;;;;;;5007008;28;20025;-59
2021/12/23 06:52:30;;;;;;;11.48;5.60;;;;;;;;;;5007971;28;20041;-59
2021/12/23 06:54:56;;;;;;;13.38;6.97;;;;;;;;;;4996138;28;20663;-59
2021/12/23 06:57:23;;;;;;;6.43;5.80;;;;;;;;;;5008655;28;20031;-59
2021/12/23 06:59:49;;;;;;;6.28;5.63;;;;;;;;;;5010574;28;20489;-60
2021/12/23 07:02:14;;;;;;;6.75;5.07;;;;;;;;;;4998326;28;20109;-60
2021/12/23 07:04:42;;;;;;;8.20;5.88;;;;;;;;;;5001120;28;20030;-59
2021/12/23 07:07:09;;;;;;;4.88;4.47;;;;;;;;;;4997668;28;20038;-59
2021/12/23 07:09:40;;;;;;;5.40;4.90;;;;;;;;;;5003788;28;20041;-59
2021/12/23 07:12:08;;;;;;;5.15;4.60;;;;;;;;;;5002504;28;20478;-60
2021/12/23 07:14:34;;;;;;;10.30;5.95;;;;;;;;;;5008322;28;20038;-59
2021/12/23 07:17:00;;;;;;;5.35;4.85;;;;;;;;;;5007605;28;20428;-60
2021/12/23 07:19:26;;;;;;;6.68;5.70;;;;;;;;;;5013882;28;20068;-60
2021/12/23 07:21:52;;;;;;;7.05;6.32;;;;;;;;;;5009652;28;20037;-60
2021/12/23 07:24:17;;;;;;;8.10;7.15;;;;;;;;;;5005745;28;20027;-59
2021/12/23 07:26:43;;;;;;;6.75;6.07;;;;;;;;;;5009059;28;20443;-59
2021/12/23 07:29:08;;;;;;;7.30;6.07;;;;;;;;;;5008493;28;20121;-59
2021/12/23 07:31:34;;;;;;;7.60;4.97;;;;;;;;;;5008354;28;20034;-59
2021/12/23 07:33:59;;;;;;;7.88;6.00;;;;;;;;;;5006515;28;20018;-59
2021/12/23 07:36:27;;;;;;;6.53;4.97;;;;;;;;;;5008015;28;20099;-60
2021/12/23 07:38:53;;;;;;;7.78;6.40;;;;;;;;;;5008234;28;20034;-60
2021/12/23 07:41:19;;;;;;;8.07;6.38;;;;;;;;;;5012740;28;20044;-59
2021/12/23 07:43:57;;;;;;;5.85;4.93;;;;;;;;;;5008687;28;20112;-59
2021/12/23 07:46:23;;;;;;;6.72;5.47;;;;;;;;;;5002930;28;20030;-59
2021/12/23 07:48:49;;;;;;;5.95;5.22;;;;;;;;;;5001794;28;20041;-59
2021/12/23 07:51:14;;;;;;;6.68;5.05;;;;;;;;;;5010266;28;20107;-60
2021/12/23 07:53:40;;;;;;;4.88;4.40;;;;;;;;;;5006260;28;20048;-59
2021/12/23 07:56:05;;;;;;;7.70;6.65;;;;;;;;;;5008359;28;20084;-59
2021/12/23 07:58:31;;;;;;;6.90;5.82;;;;;;;;;;5011928;28;20468;-59
2021/12/23 08:00:56;;;;;;;5.93;5.28;;;;;;;;;;5008956;28;20030;-60
2021/12/23 08:03:21;;;;;;;6.68;5.00;;;;;;;;;;5009605;28;20380;-59
2021/12/23 08:05:47;;;;;;;6.50;5.88;;;;;;;;;;5010246;28;20042;-60
2021/12/23 08:08:12;;;;;;;8.82;6.05;;;;;;;;;;5011765;28;20108;-59
2021/12/23 08:10:38;;;;;;;9.98;7.50;;;;;;;;;;5007695;28;20030;-59
2021/12/23 08:13:03;;;;;;;7.90;6.03;;;;;;;;;;5008244;28;20034;-59
2021/12/23 08:15:29;;;;;;;7.60;6.22;;;;;;;;;;5009033;28;20037;-60
2021/12/23 08:17:54;;;;;;;7.05;5.30;;;;;;;;;;5009876;28;20026;-60
2021/12/23 08:20:20;;;;;;;8.27;6.82;;;;;;;;;;5006398;28;20029;-60
2021/12/23 08:22:45;;;;;;;6.53;5.07;;;;;;;;;;5005800;28;20088;-60
2021/12/23 08:25:13;;;;;;;7.85;6.38;;;;;;;;;;5004019;28;20037;-60
2021/12/23 08:27:39;;;;;;;14.40;6.53;;;;;;;;;;5018293;28;20049;-60
2021/12/23 08:30:07;;;;;;;8.20;6.57;;;;;;;;;;5008898;28;20168;-61
2021/12/23 08:32:33;;;;;;;8.23;6.10;;;;;;;;;;5005334;28;20048;-60
2021/12/23 08:34:58;;;;;;;8.82;6.05;;;;;;;;;;5006210;28;20368;-60
2021/12/23 08:37:24;;;;;;;8.02;6.03;;;;;;;;;;5006546;28;20038;-60
2021/12/23 08:39:50;;;;;;;11.68;6.95;;;;;;;;;;5005205;28;20037;-59
2021/12/23 08:42:16;;;;;;;9.07;6.55;;;;;;;;;;5008652;28;20026;-58
2021/12/23 08:44:41;;;;;;;13.55;6.60;;;;;;;;;;5007749;28;20048;-60
2021/12/23 08:47:11;;;;;;;7.07;6.15;;;;;;;;;;5010805;28;20602;-59
2021/12/23 08:49:37;;;;;;;6.82;6.15;;;;;;;;;;5013036;28;20366;-60
2021/12/23 08:52:03;;;;;;;7.18;5.65;;;;;;;;;;5010468;28;20023;-59
2021/12/23 08:54:29;;;;;;;8.70;6.18;;;;;;;;;;5011932;28;20416;-59
2021/12/23 08:56:54;;;;;;;8.10;6.72;;;;;;;;;;5009551;28;20042;-60
2021/12/23 08:59:20;;;;;;;6.40;5.85;;;;;;;;;;4991790;28;20040;-60
2021/12/23 09:01:46;;;;;;;9.63;6.88;;;;;;;;;;5003078;28;20859;-60
2021/12/23 09:04:12;;;;;;;7.03;6.30;;;;;;;;;;5006073;28;20037;-60
2021/12/23 09:06:37;;;;;;;8.05;6.97;;;;;;;;;;5004336;28;20034;-60
2021/12/23 09:09:03;;;;;;;11.70;8.27;;;;;;;;;;5007278;28;20037;-60
2021/12/23 09:11:29;;;;;;;7.05;5.97;;;;;;;;;;5005936;28;20022;-60
2021/12/23 09:13:54;;;;;;;6.88;5.75;;;;;;;;;;5009590;28;20375;-60
2021/12/23 09:16:20;;;;;;;9.93;7.88;;;;;;;;;;5010520;28;20041;-60
2021/12/23 09:18:45;;;;;;;6.68;5.45;;;;;;;;;;5011834;28;20366;-60
2021/12/23 09:21:12;;;;;;;6.75;6.10;;;;;;;;;;5010431;28;20570;-61
2021/12/23 09:23:39;;;;;;;8.98;6.88;;;;;;;;;;5011877;28;20041;-60
2021/12/23 09:26:09;;;;;;;8.27;6.82;;;;;;;;;;5008534;28;20103;-48
2021/12/23 09:28:53;;;;;;;9.27;7.28;;;;;;;;;;5016639;28;20026;-46
2021/12/23 09:34:04;;;;;;;12.43;7.63;;;;;;;;;;5006132;28;20058;-46
2021/12/23 09:36:29;;;;;;;20.42;7.18;;;;;;;;;;5005551;28;20338;-47
2021/12/23 09:38:54;;;;;;;11.88;7.13;;;;;;;;;;5003949;28;20372;-47
2021/12/23 09:41:22;;;;;;;8.30;7.00;;;;;;;;;;4999269;28;20026;-47
2021/12/23 09:43:49;;;;;;;9.77;7.32;;;;;;;;;;5005034;28;20523;-47
2021/12/23 09:46:20;;;;;;;10.15;8.45;;;;;;;;;;5006768;28;20041;-48
2021/12/23 09:48:46;;;;;;;;;;;;;;;;;;5009982;28;20037;-47
2021/12/23 09:51:15;;;;;;;6.68;5.80;;;;;;;;;;5008529;28;20011;-46
2021/12/23 09:53:43;;;;;;;9.55;8.55;;;;;;;;;;5006790;28;20037;-47
2021/12/23 09:56:09;;;;;;;8.18;7.10;;;;;;;;;;5006965;28;20033;-48
2021/12/23 09:58:35;;;;;;;10.77;7.43;;;;;;;;;;5008216;28;20045;-48
2021/12/23 10:01:02;;;;;;;8.30;6.95;;;;;;;;;;5013393;28;20026;-47
2021/12/23 10:03:28;;;;;;;8.32;6.25;;;;;;;;;;5007476;28;20034;-46
2021/12/23 10:05:55;;;;;;;8.15;6.68;;;;;;;;;;5005819;28;20161;-48
2021/12/23 10:08:22;;;;;;;9.57;7.28;;;;;;;;;;5006155;28;20030;-49
2021/12/23 10:10:53;;;;;;;8.75;6.38;;;;;;;;;;5007657;28;20030;-49
2021/12/23 10:30:17;;;;;;;11.25;8.60;;;;;;;;;;5006853;28;20036;-46
2021/12/23 10:33:28;;;;;;;8.48;7.07;;;;;;;;;;5007430;28;20076;-45
2021/12/23 10:38:50;;;;;;;8.48;6.97;;;;;;;;;;5003127;28;20266;-46
2021/12/23 10:41:24;;;;;;;9.67;8.03;;;;;;;;;;5000602;28;20029;-48
2021/12/23 10:44:08;;;;;;;7.45;6.07;;;;;;;;;;5009940;28;20095;-51
2021/12/23 10:46:39;;;;;;;6.65;5.60;;;;;;;;;;5005890;28;20030;-48
2021/12/23 10:49:29;;;;;;;;;;;;;;;;;;5009522;28;20046;-47
2021/12/23 10:52:13;;;;;;;8.10;6.70;;;;;;;;;;4999683;28;19914;-51
2021/12/23 11:00:14;;;;;;;7.70;6.95;;;;;;;;;;5003717;28;20640;-49
2021/12/23 11:03:14;;;;;;;11.98;6.38;;;;;;;;;;5007441;28;20472;-48
2021/12/23 11:05:55;;;;;;;9.90;6.32;;;;;;;;;;5010194;28;20037;-50
2021/12/23 11:27:54;;;;;;;14.07;11.98;;;;;;;;;;5005325;28;20110;-50
2021/12/23 11:31:37;;;;;;;19.02;11.32;;;;;;;;;;4998951;28;20191;-51
2021/12/23 11:43:56;;;;;;;6.90;5.93;;;;;;;;;;5004770;28;20120;-52
2021/12/23 11:46:32;;;;;;;8.40;7.13;;;;;;;;;;5007376;28;20049;-52
2021/12/23 11:49:01;;;;;;;10.02;7.43;;;;;;;;;;5010914;28;20125;-52
2021/12/23 11:52:02;;;;;;;9.68;5.80;;;;;;;;;;5008722;28;20025;-51
2021/12/23 11:54:28;;;;;;;11.75;7.45;;;;;;;;;;5002632;28;20045;-51
2021/12/23 11:57:07;;;;;;;7.30;6.60;;;;;;;;;;5004624;28;20049;-52
2021/12/23 11:59:35;;;;;;;10.27;8.50;;;;;;;;;;5007624;28;20069;-52
2021/12/23 12:02:10;;;;;;;8.77;7.63;;;;;;;;;;5008379;28;20117;-51
2021/12/23 12:04:37;;;;;;;12.10;6.47;;;;;;;;;;5005081;28;20033;-51
2021/12/23 12:07:13;;;;;;;9.13;7.22;;;;;;;;;;5004307;28;20026;-49
2021/12/23 12:09:53;;;;;;;10.45;7.07;;;;;;;;;;5004081;28;20037;-52
2021/12/23 12:12:19;;;;;;;13.52;7.80;;;;;;;;;;5005542;28;20033;-53
2021/12/23 12:14:46;;;;;;;8.75;6.95;;;;;;;;;;5009956;28;20061;-52
2021/12/23 12:17:23;;;;;;;10.70;7.20;;;;;;;;;;5008692;28;20136;-50
2021/12/23 12:19:59;;;;;;;10.85;7.28;;;;;;;;;;5009891;28;20038;-49
2021/12/23 12:23:07;;;;;;;11.38;7.03;;;;;;;;;;5011758;28;20029;-51
2021/12/23 12:25:38;;;;;;;11.68;7.80;;;;;;;;;;4960322;28;20046;-53
2021/12/23 12:28:03;;;;;;;11.70;7.68;;;;;;;;;;4961263;28;20530;-50
2021/12/23 12:30:36;;;;;;;9.13;7.15;;;;;;;;;;4984092;28;20056;-53
2021/12/23 12:33:03;;;;;;;6.40;5.72;;;;;;;;;;5015525;28;20083;-55
2021/12/23 12:35:28;;;;;;;12.65;8.32;;;;;;;;;;5008457;28;20096;-54
2021/12/23 12:37:54;;;;;;;14.65;9.40;;;;;;;;;;5010113;28;20452;-54
2021/12/23 12:40:19;;;;;;;17.23;8.25;;;;;;;;;;5008781;28;20057;-53
2021/12/23 12:42:47;;;;;;;11.75;7.80;;;;;;;;;;5006346;28;20056;-53
2021/12/23 12:45:24;;;;;;;9.52;7.75;;;;;;;;;;5002410;28;20105;-55
2021/12/23 12:47:55;;;;;;;12.70;8.18;;;;;;;;;;5001614;28;20761;-54
2021/12/23 12:50:25;;;;;;;;;;;;;;;;;;5007856;28;20030;-55
2021/12/23 12:52:51;;;;;;;15.60;7.15;;;;;;;;;;5010072;28;19927;-59
2021/12/23 12:55:22;;;;;;;8.25;6.53;;;;;;;;;;5008216;28;20042;-59
2021/12/23 12:58:06;;;;;;;8.25;6.38;;;;;;;;;;5009020;28;20029;-60
2021/12/23 13:00:35;;;;;;;7.82;6.60;;;;;;;;;;5006099;28;20040;-60
2021/12/23 13:03:12;;;;;;;9.52;6.28;;;;;;;;;;5009862;28;20074;-59
2021/12/23 13:05:43;;;;;;;5.80;5.20;;;;;;;;;;5009687;28;20064;-58
2021/12/23 13:08:16;;;;;;;10.05;7.15;;;;;;;;;;5012044;28;20075;-59
2021/12/23 13:10:47;;;;;;;8.38;5.68;;;;;;;;;;5006168;28;20037;-56
2021/12/23 13:13:22;;;;;;;10.82;7.65;;;;;;;;;;5010855;28;20041;-54
2021/12/23 13:15:51;;;;;;;10.10;8.43;;;;;;;;;;5003714;28;20088;-56
2021/12/23 13:18:19;;;;;;;10.15;7.55;;;;;;;;;;5005345;28;20033;-54
2021/12/23 13:20:47;;;;;;;8.88;7.40;;;;;;;;;;5000099;28;20125;-57
2021/12/23 13:23:37;;;;;;;12.40;10.48;;;;;;;;;;5001790;28;20037;-55
2021/12/23 13:26:08;;;;;;;8.00;6.78;;;;;;;;;;5007301;28;20037;-55
2021/12/23 13:28:37;;;;;;;;;;;;;;;;;;5006356;28;20025;-55
2021/12/23 13:31:07;;;;;;;9.43;7.70;;;;;;;;;;5006361;28;20004;-56
2021/12/23 13:33:53;;;;;;;6.25;5.65;;;;;;;;;;5006005;28;20042;-53
2021/12/23 13:36:31;;;;;;;9.65;6.95;;;;;;;;;;5007293;28;20032;-55
2021/12/23 13:38:57;;;;;;;9.63;6.07;;;;;;;;;;5007827;28;20040;-52
2021/12/23 13:41:27;;;;;;;8.93;6.35;;;;;;;;;;5010279;28;20088;-53
2021/12/23 13:43:58;;;;;;;8.80;6.88;;;;;;;;;;5010532;28;20065;-54
2021/12/23 13:46:26;;;;;;;6.53;5.78;;;;;;;;;;5006870;28;20033;-53
2021/12/23 13:48:58;;;;;;;7.10;6.45;;;;;;;;;;5009950;28;20045;-54
2021/12/23 13:51:28;;;;;;;9.77;6.50;;;;;;;;;;5007279;28;20391;-52
2021/12/23 13:54:03;;;;;;;12.40;7.55;;;;;;;;;;5005758;28;20040;-52
2021/12/23 13:56:31;;;;;;;12.90;7.32;;;;;;;;;;5004910;28;20038;-54
2021/12/23 13:59:08;;;;;;;9.50;7.75;;;;;;;;;;4999845;28;20038;-55
2021/12/23 14:01:34;;;;;;;9.32;6.75;;;;;;;;;;5005317;28;20050;-52
2021/12/23 14:03:59;;;;;;;8.13;6.97;;;;;;;;;;5004717;28;20034;-54
2021/12/23 14:06:24;;;;;;;6.50;5.90;;;;;;;;;;5006398;28;20105;-54
2021/12/23 14:08:50;;;;;;;8.05;6.97;;;;;;;;;;5007035;28;20657;-53
2021/12/23 14:11:15;;;;;;;8.00;7.20;;;;;;;;;;5005154;28;20026;-53
2021/12/23 14:13:40;;;;;;;7.22;6.47;;;;;;;;;;5003125;28;20675;-53
2021/12/23 14:16:06;;;;;;;8.98;8.07;;;;;;;;;;5009328;28;20046;-52
2021/12/23 14:23:56;;;;;;;7.35;6.60;;;;;;;;;;5008357;28;20034;-52
2021/12/23 14:26:29;;;;;;;7.28;6.45;;;;;;;;;;5008995;28;20425;-54
2021/12/23 14:29:07;;;;;;;10.25;7.20;;;;;;;;;;5005046;28;20042;-51
2021/12/23 14:31:39;;;;;;;8.75;6.32;;;;;;;;;;5005715;28;20104;-53
2021/12/23 14:34:27;;;;;;;8.07;7.25;;;;;;;;;;5002396;28;20108;-53
2021/12/23 14:36:55;;;;;;;9.05;6.30;;;;;;;;;;4998025;28;20141;-53
2021/12/23 14:39:38;;;;;;;9.98;7.90;;;;;;;;;;5004553;28;20037;-53
2021/12/23 14:42:14;;;;;;;7.35;6.60;;;;;;;;;;5002789;28;20134;-52
2021/12/23 14:44:39;;;;;;;10.10;6.53;;;;;;;;;;5007099;28;20041;-52
2021/12/23 14:47:24;;;;;;;10.25;7.40;;;;;;;;;;5007749;28;20022;-52
2021/12/23 14:52:42;;;;;;;7.47;6.53;;;;;;;;;;5005153;28;20518;-51
2021/12/23 14:55:25;;;;;;;12.18;6.18;;;;;;;;;;5011911;28;20026;-53
2021/12/23 14:57:57;;;;;;;9.88;7.15;;;;;;;;;;5006457;28;20049;-50
2021/12/23 15:00:28;;;;;;;10.18;8.38;;;;;;;;;;5007176;28;20053;-50
2021/12/23 15:03:11;;;;;;;12.02;7.82;;;;;;;;;;5010833;28;20034;-51
2021/12/23 15:05:42;;;;;;;6.72;5.75;;;;;;;;;;5005942;28;20044;-50
2021/12/23 15:08:25;;;;;;;11.10;7.63;;;;;;;;;;5001958;28;20023;-49
2021/12/23 15:10:53;;;;;;;7.43;6.38;;;;;;;;;;5003909;28;20052;-48
2021/12/23 15:13:27;;;;;;;8.13;6.65;;;;;;;;;;5001784;28;20025;-51
2021/12/23 15:16:03;;;;;;;7.10;5.57;;;;;;;;;;5004702;28;20033;-52
2021/12/23 15:18:36;;;;;;;12.45;8.93;;;;;;;;;;5010290;28;20095;-51
2021/12/23 15:21:10;;;;;;;12.63;7.97;;;;;;;;;;5002178;28;20032;-52
2021/12/23 15:23:39;;;;;;;19.23;9.60;;;;;;;;;;5003177;28;20469;-51
2021/12/23 15:26:32;;;;;;;8.40;7.50;;;;;;;;;;5003701;28;20124;-51
2021/12/23 15:29:17;;;;;;;9.80;8.13;;;;;;;;;;5003149;28;20129;-48
2021/12/23 15:31:52;;;;;;;12.88;8.25;;;;;;;;;;5006070;28;20365;-47
2021/12/23 15:34:18;;;;;;;14.57;6.93;;;;;;;;;;5010209;28;20037;-49
2021/12/23 15:36:43;;;;;;;13.85;8.02;;;;;;;;;;5011172;28;20052;-50
2021/12/23 15:39:25;;;;;;;8.52;5.85;;;;;;;;;;5009671;28;20372;-49
2021/12/23 15:41:51;;;;;;;14.13;9.05;;;;;;;;;;5009562;28;20088;-51
2021/12/23 15:44:17;;;;;;;9.75;7.40;;;;;;;;;;5006119;28;20108;-48
2021/12/23 15:46:43;;;;;;;16.83;7.22;;;;;;;;;;5007062;28;20026;-52
2021/12/23 15:49:08;;;;;;;9.35;7.30;;;;;;;;;;5000990;28;20468;-50
2021/12/23 15:51:36;;;;;;;13.95;8.43;;;;;;;;;;5003613;28;20055;-49
2021/12/23 15:54:02;;;;;;;16.80;8.75;;;;;;;;;;5010199;28;20034;-48
2021/12/23 15:56:28;;;;;;;6.97;5.55;;;;;;;;;;4991583;28;20043;-52
2021/12/23 15:58:53;;;;;;;8.38;6.70;;;;;;;;;;5007733;28;20181;-49
2021/12/23 16:01:19;;;;;;;9.48;7.65;;;;;;;;;;5011993;28;20483;-49
2021/12/23 16:03:45;;;;;;;7.45;6.75;;;;;;;;;;5012764;28;20033;-52